createdAt,value
2023-04-24T00:01:27.988Z,70.02
2023-04-24T00:03:55.277Z,70.86
2023-04-24T00:06:24.666Z,70.88
2023-04-24T00:08:51.682Z,70.98
2023-04-24T00:11:19.119Z,71.09
2023-04-24T00:13:46.201Z,70.63
2023-04-24T00:16:13.260Z,71.12
2023-04-24T00:18:40.779Z,71.63
2023-04-24T00:21:08.100Z,71.64
2023-04-24T00:23:35.112Z,71.79
2023-04-24T00:26:02.069Z,71.41
2023-04-24T00:28:29.270Z,71.49
2023-04-24T00:30:57.726Z,71.79
2023-04-24T00:33:24.746Z,71.87
2023-04-24T00:35:52.148Z,72.51
2023-04-24T00:38:19.478Z,72.28
2023-04-24T00:40:48.622Z,72.03
2023-04-24T00:43:15.623Z,71.90
2023-04-24T00:45:42.500Z,72.01
2023-04-24T00:48:09.685Z,71.26
2023-04-24T00:50:37.479Z,71.23
2023-04-24T00:53:04.572Z,71.24
2023-04-24T00:55:32.731Z,71.00
2023-04-24T00:57:59.787Z,70.31
2023-04-24T01:00:26.708Z,70.36
2023-04-24T01:02:54.603Z,69.71
2023-04-24T01:05:21.852Z,70.00
2023-04-24T01:07:50.132Z,69.55
2023-04-24T01:10:18.855Z,68.93
2023-04-24T01:12:46.679Z,68.67
2023-04-24T01:15:13.613Z,67.95
2023-04-24T01:17:43.088Z,67.58
2023-04-24T01:20:10.594Z,67.72
2023-04-24T01:22:37.749Z,68.13
2023-04-24T01:25:05.144Z,68.31
2023-04-24T01:27:33.543Z,68.43
2023-04-24T01:30:01.081Z,67.99
2023-04-24T01:32:33.562Z,68.03
2023-04-24T01:35:00.587Z,68.26
2023-04-24T01:37:28.004Z,67.30
2023-04-24T01:39:55.178Z,67.49
2023-04-24T01:42:22.377Z,67.06
2023-04-24T01:44:49.404Z,66.98
2023-04-24T01:47:16.518Z,67.13
2023-04-24T01:49:43.831Z,66.89
2023-04-24T01:52:13.301Z,66.72
2023-04-24T01:54:40.380Z,67.55
2023-04-24T01:57:07.365Z,67.82
2023-04-24T01:59:34.599Z,67.99
2023-04-24T02:02:01.637Z,67.89
2023-04-24T02:04:28.910Z,68.06
2023-04-24T02:06:56.076Z,68.80
2023-04-24T02:09:23.031Z,68.98
2023-04-24T02:11:51.252Z,68.80
2023-04-24T02:14:19.009Z,68.44
2023-04-24T02:16:47.050Z,68.27
2023-04-24T02:19:14.068Z,68.63
2023-04-24T02:21:41.043Z,69.39
2023-04-24T02:24:09.770Z,69.98
2023-04-24T02:26:36.800Z,71.40
2023-04-24T02:29:03.795Z,71.37
2023-04-24T02:31:30.953Z,71.78
2023-04-24T02:33:58.075Z,71.69
2023-04-24T02:36:25.136Z,72.15
2023-04-24T02:38:52.186Z,71.59
2023-04-24T02:41:19.240Z,70.72
2023-04-24T02:43:46.366Z,71.32
2023-04-24T02:46:13.424Z,71.87
2023-04-24T02:48:40.513Z,71.68
2023-04-24T02:51:07.966Z,71.09
2023-04-24T02:53:35.172Z,71.37
2023-04-24T02:56:03.323Z,71.54
2023-04-24T02:58:30.335Z,71.38
2023-04-24T03:00:57.469Z,71.02
2023-04-24T03:03:25.226Z,71.12
2023-04-24T03:05:52.537Z,70.12
2023-04-24T03:08:19.506Z,70.29
2023-04-24T03:10:48.196Z,69.58
2023-04-24T03:13:17.148Z,69.10
2023-04-24T03:15:44.419Z,68.13
2023-04-24T03:18:11.696Z,67.04
2023-04-24T03:20:40.393Z,66.97
2023-04-24T03:23:08.254Z,66.64
2023-04-24T03:25:36.741Z,66.53
2023-04-24T03:28:04.183Z,65.93
2023-04-24T03:30:39.830Z,65.71
2023-04-24T03:33:08.189Z,65.53
2023-04-24T03:35:39.024Z,65.63
2023-04-24T03:38:09.994Z,65.43
2023-04-24T03:40:42.890Z,64.18
2023-04-24T03:43:42.333Z,63.43
2023-04-24T03:46:10.591Z,62.94
2023-04-24T03:48:42.576Z,61.54
2023-04-24T03:51:11.162Z,60.88
2023-04-24T03:53:41.119Z,59.56
2023-04-24T03:56:09.548Z,59.12
2023-04-24T03:58:36.588Z,58.39
2023-04-24T04:01:03.921Z,57.68
2023-04-24T04:04:00.644Z,57.47
2023-04-24T04:06:29.619Z,57.24
2023-04-24T04:08:58.338Z,55.80
2023-04-24T04:11:25.564Z,55.15
2023-04-24T04:13:52.745Z,54.07
2023-04-24T04:16:22.227Z,53.11
2023-04-24T04:18:52.135Z,52.00
2023-04-24T04:21:19.587Z,51.23
2023-04-24T04:23:47.920Z,50.78
2023-04-24T04:26:22.284Z,49.72
2023-04-24T04:29:18.457Z,49.05
2023-04-24T04:31:47.513Z,48.38
2023-04-24T04:34:15.601Z,47.74
2023-04-24T04:36:44.012Z,47.82
2023-04-24T04:39:34.149Z,46.60
2023-04-24T04:42:11.618Z,46.15
2023-04-24T04:44:42.817Z,45.33
2023-04-24T04:47:15.092Z,44.80
2023-04-24T04:49:44.323Z,44.11
2023-04-24T04:52:21.600Z,43.51
2023-04-24T04:54:53.211Z,42.67
2023-04-24T04:57:21.724Z,42.38
2023-04-24T04:59:48.890Z,42.09
2023-04-24T05:02:26.693Z,41.43
2023-04-24T05:04:54.047Z,40.93
2023-04-24T05:07:21.372Z,40.63
2023-04-24T05:09:52.686Z,39.84
2023-04-24T05:12:20.393Z,38.97
2023-04-24T05:14:52.044Z,39.34
2023-04-24T05:17:19.617Z,38.84
2023-04-24T05:19:47.518Z,37.63
2023-04-24T05:22:15.729Z,37.80
2023-04-24T05:24:49.258Z,37.64
2023-04-24T05:27:42.386Z,36.02
2023-04-24T05:30:15.271Z,35.58
2023-04-24T05:32:42.477Z,35.57
2023-04-24T05:35:09.644Z,33.89
2023-04-24T05:37:37.240Z,33.92
2023-04-24T05:40:06.316Z,33.75
2023-04-24T05:42:33.564Z,33.32
2023-04-24T05:45:00.726Z,32.92
2023-04-24T05:47:27.958Z,32.38
2023-04-24T05:49:55.621Z,31.87
2023-04-24T05:52:22.972Z,32.10
2023-04-24T05:54:50.773Z,32.17
2023-04-24T05:57:22.554Z,31.34
2023-04-24T06:00:00.249Z,31.49
2023-04-24T06:02:28.896Z,31.94
2023-04-24T06:04:56.596Z,31.33
2023-04-24T06:07:25.310Z,30.87
2023-04-24T06:09:52.515Z,30.36
2023-04-24T06:12:19.816Z,29.53
2023-04-24T06:14:57.969Z,30.45
2023-04-24T06:17:33.552Z,30.89
2023-04-24T06:20:00.635Z,30.04
2023-04-24T06:22:27.754Z,29.53
2023-04-24T06:24:54.673Z,29.04
2023-04-24T06:27:21.799Z,29.37
2023-04-24T06:29:55.312Z,29.18
2023-04-24T06:32:24.192Z,29.27
2023-04-24T06:34:52.968Z,29.35
2023-04-24T06:37:21.601Z,29.00
2023-04-24T06:39:48.707Z,28.59
2023-04-24T06:42:15.881Z,28.21
2023-04-24T06:44:44.614Z,27.54
2023-04-24T06:47:11.777Z,27.72
2023-04-24T06:49:38.822Z,26.99
2023-04-24T06:52:05.996Z,26.42
2023-04-24T06:54:33.277Z,26.71
2023-04-24T06:57:01.922Z,26.84
2023-04-24T06:59:29.315Z,26.28
2023-04-24T07:01:57.028Z,26.76
2023-04-24T07:04:26.272Z,26.04
2023-04-24T07:06:55.503Z,25.39
2023-04-24T07:09:24.776Z,25.85
2023-04-24T07:11:52.691Z,24.98
2023-04-24T07:14:19.725Z,25.66
2023-04-24T07:16:46.838Z,24.62
2023-04-24T07:19:14.303Z,23.82
2023-04-24T07:21:41.391Z,24.17
2023-04-24T07:24:12.033Z,24.11
2023-04-24T07:26:40.295Z,24.01
2023-04-24T07:29:07.900Z,22.94
2023-04-24T07:31:35.100Z,22.98
2023-04-24T07:34:02.429Z,23.40
2023-04-24T07:36:29.556Z,23.84
2023-04-24T07:38:57.753Z,23.53
2023-04-24T07:41:25.456Z,22.56
2023-04-24T07:43:54.736Z,22.56
2023-04-24T07:46:22.115Z,22.90
2023-04-24T07:48:58.520Z,22.46
2023-04-24T07:51:29.363Z,22.72
2023-04-24T07:53:56.400Z,22.74
2023-04-24T07:56:23.708Z,22.93
2023-04-24T07:58:50.760Z,23.49
2023-04-24T08:01:17.914Z,23.44
2023-04-24T08:03:45.215Z,22.81
2023-04-24T08:06:12.480Z,22.32
2023-04-24T08:08:39.462Z,22.56
2023-04-24T08:11:06.439Z,23.54
2023-04-24T08:13:33.496Z,23.26
2023-04-24T08:16:00.611Z,22.93
2023-04-24T08:18:27.698Z,23.66
2023-04-24T08:20:54.730Z,23.42
2023-04-24T08:23:21.904Z,23.60
2023-04-24T08:25:49.633Z,23.20
2023-04-24T08:28:21.089Z,22.67
2023-04-24T08:30:48.834Z,22.36
2023-04-24T08:33:16.226Z,22.31
2023-04-24T14:49:24.854Z,26.45
2023-04-24T14:51:51.923Z,26.75
2023-04-24T14:54:18.848Z,26.60
2023-04-24T14:56:46.041Z,26.42
2023-04-24T14:59:13.145Z,26.46
2023-04-24T15:01:40.130Z,26.68
2023-04-24T15:04:07.501Z,26.48
2023-04-24T15:06:34.644Z,26.20
2023-04-24T15:09:01.693Z,26.07
2023-04-24T15:11:29.056Z,25.85
2023-04-24T15:13:57.043Z,25.82
2023-04-24T15:16:25.047Z,26.08
2023-04-24T15:18:52.362Z,26.11
2023-04-24T15:21:19.423Z,26.30
2023-04-24T15:23:46.604Z,26.35
2023-04-24T15:26:14.343Z,26.55
2023-04-24T15:28:41.401Z,26.53
2023-04-24T15:31:08.378Z,26.59
2023-04-24T15:33:35.368Z,26.46
2023-04-24T15:36:02.510Z,26.22
2023-04-24T15:38:29.521Z,26.25
2023-04-24T15:40:56.480Z,26.33
2023-04-24T15:43:23.652Z,26.36
2023-04-24T15:45:51.281Z,26.67
2023-04-24T15:48:18.378Z,26.50
2023-04-24T15:50:45.518Z,26.70
2023-04-24T15:53:12.726Z,26.61
2023-04-24T15:55:39.944Z,26.87
2023-04-24T15:58:06.900Z,27.60
2023-04-24T16:00:37.200Z,27.73
2023-04-24T16:03:04.375Z,27.90
2023-04-24T16:05:32.148Z,27.86
2023-04-24T16:07:59.259Z,29.27
2023-04-24T16:10:26.784Z,29.98
2023-04-24T16:12:54.664Z,30.29
2023-04-24T16:15:21.824Z,31.35
2023-04-24T16:17:49.805Z,32.41
2023-04-24T16:20:16.872Z,33.77
2023-04-24T16:22:43.826Z,35.41
2023-04-24T16:25:11.359Z,34.91
2023-04-24T16:27:38.614Z,35.70
2023-04-24T16:30:06.353Z,36.98
2023-04-24T16:32:34.616Z,35.58
2023-04-24T16:35:01.565Z,35.80
2023-04-24T16:37:31.294Z,36.63
2023-04-24T16:39:58.475Z,37.37
2023-04-24T16:42:25.619Z,38.43
2023-04-24T16:44:52.684Z,37.93
2023-04-24T16:47:20.359Z,39.58
2023-04-24T16:49:47.502Z,38.86
2023-04-24T16:52:14.485Z,39.92
2023-04-24T16:54:41.714Z,41.80
2023-04-24T16:57:08.698Z,43.02
2023-04-24T16:59:35.841Z,43.98
2023-04-24T17:02:03.006Z,44.76
2023-04-24T17:04:30.369Z,43.04
2023-04-24T17:06:57.684Z,43.03
2023-04-24T17:09:24.756Z,43.92
2023-04-24T17:11:51.888Z,45.10
2023-04-24T17:14:19.069Z,45.32
2023-04-24T17:16:46.314Z,46.33
2023-04-24T17:19:13.414Z,46.58
2023-04-24T17:21:40.737Z,44.03
2023-04-24T17:24:08.021Z,45.22
2023-04-24T17:26:35.213Z,44.08
2023-04-24T17:29:02.312Z,44.36
2023-04-24T17:31:29.503Z,43.39
2023-04-24T17:33:56.625Z,43.13
2023-04-24T17:36:23.629Z,43.94
2023-04-24T17:38:51.189Z,43.13
2023-04-24T17:41:18.420Z,43.15
2023-04-24T17:43:45.853Z,43.11
2023-04-24T17:46:13.389Z,41.54
2023-04-24T17:48:40.594Z,39.94
2023-04-24T17:51:08.433Z,39.22
2023-04-24T17:53:35.501Z,38.44
2023-04-24T17:56:03.992Z,37.95
2023-04-24T17:58:31.409Z,37.95
2023-04-24T18:00:58.441Z,38.16
2023-04-24T18:03:25.564Z,38.48
2023-04-24T18:05:52.750Z,38.64
2023-04-24T18:08:19.793Z,39.10
2023-04-24T18:10:46.920Z,39.14
2023-04-24T18:13:13.978Z,39.36
2023-04-24T18:15:43.340Z,39.34
2023-04-24T18:18:11.310Z,39.44
2023-04-24T18:20:38.559Z,39.79
2023-04-24T18:23:05.755Z,40.13
2023-04-24T18:25:32.961Z,40.44
2023-04-24T18:28:00.014Z,41.02
2023-04-24T18:30:28.302Z,41.22
2023-04-24T18:32:55.481Z,41.77
2023-04-24T18:35:23.066Z,42.27
2023-04-24T18:37:50.687Z,43.02
2023-04-24T18:40:17.899Z,43.60
2023-04-24T18:42:45.180Z,43.68
2023-04-24T18:45:14.707Z,43.92
2023-04-24T18:47:43.674Z,44.49
2023-04-24T18:50:11.364Z,44.85
2023-04-24T18:52:38.549Z,44.74
2023-04-24T18:55:07.075Z,45.12
2023-04-24T18:57:34.871Z,45.24
2023-04-24T19:00:02.059Z,45.30
2023-04-24T19:02:34.856Z,45.79
2023-04-24T19:05:02.797Z,46.55
2023-04-24T19:07:33.813Z,46.74
2023-04-24T19:10:00.781Z,47.17
2023-04-24T19:12:27.749Z,47.68
2023-04-24T19:14:56.184Z,48.21
2023-04-24T19:17:25.205Z,48.48
2023-04-24T19:19:52.449Z,49.36
2023-04-24T19:22:20.747Z,49.62
2023-04-24T19:24:47.792Z,50.33
2023-04-24T19:27:14.933Z,50.07
2023-04-24T19:29:42.243Z,50.17
2023-04-24T19:32:09.484Z,50.41
2023-04-24T19:34:38.387Z,50.51
2023-04-24T19:37:08.234Z,50.54
2023-04-24T19:39:35.398Z,50.87
2023-04-24T19:42:07.098Z,51.33
2023-04-24T19:44:34.841Z,52.30
2023-04-24T19:47:01.937Z,52.80
2023-04-24T19:49:29.030Z,53.13
2023-04-24T19:51:56.061Z,53.56
2023-04-24T19:54:23.514Z,53.88
2023-04-24T19:56:50.630Z,53.71
2023-04-24T19:59:17.740Z,54.16
2023-04-24T20:01:44.830Z,54.33
2023-04-24T20:04:12.172Z,53.91
2023-04-24T20:06:39.317Z,53.62
2023-04-24T20:09:06.403Z,53.73
2023-04-24T20:11:34.032Z,54.10
2023-04-24T20:14:03.923Z,54.29
2023-04-24T20:16:31.438Z,54.76
2023-04-24T20:18:58.887Z,54.81
2023-04-24T20:21:26.720Z,54.86
2023-04-24T20:23:53.789Z,55.23
2023-04-24T20:26:21.748Z,55.82
2023-04-24T20:28:49.172Z,56.73
2023-04-24T20:31:16.579Z,57.33
2023-04-24T20:33:45.550Z,57.35
2023-04-24T20:36:12.555Z,57.48
2023-04-24T20:38:39.503Z,57.66
2023-04-24T20:41:08.450Z,57.96
2023-04-24T20:43:35.500Z,57.79
2023-04-24T20:46:02.777Z,57.54
2023-04-24T20:48:29.835Z,57.52
2023-04-24T20:50:57.019Z,58.15
2023-04-24T20:53:24.267Z,58.41
2023-04-24T20:55:51.369Z,58.97
2023-04-24T20:58:22.223Z,58.89
2023-04-24T21:00:49.697Z,58.27
2023-04-24T21:03:17.161Z,58.01
2023-04-24T21:05:44.360Z,58.40
2023-04-24T21:08:11.788Z,58.29
2023-04-24T21:10:38.816Z,58.32
2023-04-24T21:13:05.976Z,58.48
2023-04-24T21:15:33.484Z,58.10
2023-04-24T21:18:00.774Z,58.24
2023-04-24T21:20:27.834Z,58.25
2023-04-24T21:22:54.757Z,58.44
2023-04-24T21:25:21.765Z,58.66
2023-04-24T21:27:48.793Z,58.75
2023-04-24T21:30:15.835Z,59.22
2023-04-24T21:32:43.120Z,60.14
2023-04-24T21:35:10.384Z,58.68
2023-04-24T21:37:39.370Z,58.02
2023-04-24T21:40:07.868Z,59.30
2023-04-24T21:42:35.075Z,60.69
2023-04-24T21:45:02.273Z,61.65
2023-04-24T21:47:32.254Z,62.21
2023-04-24T21:49:59.387Z,62.04
2023-04-24T21:52:26.350Z,62.28
2023-04-24T21:54:53.530Z,62.58
2023-04-24T21:57:20.842Z,62.97
2023-04-24T21:59:47.882Z,63.55
2023-04-24T22:02:14.994Z,63.71
2023-04-24T22:04:43.110Z,63.95
2023-04-24T22:07:10.351Z,63.93
2023-04-24T22:09:37.450Z,64.59
2023-04-24T22:12:05.123Z,65.20
2023-04-24T22:14:32.405Z,66.09
2023-04-24T22:16:59.545Z,66.03
2023-04-24T22:19:28.255Z,66.12
2023-04-24T22:21:55.350Z,65.65
2023-04-24T22:24:22.397Z,66.04
2023-04-24T22:26:49.922Z,65.72
2023-04-24T22:29:17.016Z,65.37
2023-04-24T22:31:45.212Z,65.51
2023-04-24T22:34:12.318Z,65.11
2023-04-24T22:36:39.544Z,65.20
2023-04-24T22:39:07.413Z,65.29
2023-04-24T22:41:34.641Z,65.11
2023-04-24T22:44:01.519Z,65.04
2023-04-24T22:46:28.713Z,65.56
2023-04-24T22:48:58.502Z,65.09
2023-04-24T22:51:26.136Z,65.02
2023-04-24T22:53:54.618Z,64.51
2023-04-24T22:56:21.668Z,64.05
2023-04-24T22:58:48.632Z,64.39
2023-04-24T23:01:15.762Z,64.15
2023-04-24T23:03:43.588Z,64.44
2023-04-24T23:06:10.744Z,64.44
2023-04-24T23:08:37.777Z,65.37
2023-04-24T23:11:04.808Z,65.83
2023-04-24T23:13:31.821Z,65.67
2023-04-24T23:15:58.815Z,65.82
2023-04-24T23:18:26.100Z,65.83
2023-04-24T23:20:53.084Z,66.01
2023-04-24T23:23:20.213Z,66.48
2023-04-24T23:25:47.266Z,66.83
2023-04-24T23:28:14.382Z,67.32
2023-04-24T23:30:41.343Z,67.47
2023-04-24T23:33:08.649Z,67.66
2023-04-24T23:35:36.265Z,67.96
2023-04-24T23:38:03.287Z,67.79
2023-04-24T23:40:30.723Z,67.93
2023-04-24T23:43:06.889Z,68.02
2023-04-24T23:45:35.708Z,67.88
2023-04-24T23:48:04.162Z,67.79
2023-04-24T23:50:31.312Z,67.93
2023-04-24T23:52:58.974Z,68.14
2023-04-24T23:55:26.119Z,68.56
2023-04-24T23:57:53.072Z,68.79
